createdAt,value
2018-01-13T00:01:08.284Z,48.27
2018-01-13T00:03:37.795Z,47.90
2018-01-13T00:06:07.566Z,46.47
2018-01-13T00:08:36.567Z,44.80
2018-01-13T00:11:05.507Z,49.40
2018-01-13T00:13:34.522Z,58.23
2018-01-13T00:16:03.442Z,44.00
2018-01-13T00:18:32.494Z,46.80
2018-01-13T00:21:02.318Z,54.33
2018-01-13T00:23:31.313Z,53.87
2018-01-13T00:26:00.298Z,58.20
2018-01-13T00:28:29.295Z,48.80
2018-01-13T00:30:58.279Z,50.50
2018-01-13T00:33:27.207Z,52.90
2018-01-13T00:35:56.164Z,52.93
2018-01-13T00:38:25.530Z,49.80
2018-01-13T00:40:54.493Z,44.03
2018-01-13T00:43:23.460Z,48.77
2018-01-13T00:45:53.196Z,50.90
2018-01-13T00:48:22.160Z,49.30
2018-01-13T00:50:51.507Z,48.17
2018-01-13T00:53:20.482Z,58.53
2018-01-13T00:55:49.543Z,45.20
2018-01-13T00:58:18.497Z,48.03
2018-01-13T01:00:47.890Z,52.27
2018-01-13T01:03:16.876Z,46.63
2018-01-13T01:05:45.849Z,44.87
2018-01-13T01:08:15.587Z,49.10
2018-01-13T01:10:44.634Z,53.13
2018-01-13T01:13:14.416Z,47.80
2018-01-13T01:15:43.671Z,53.03
2018-01-13T01:18:12.631Z,37.97
2018-01-13T01:20:42.346Z,62.70
2018-01-13T01:25:46.374Z,43.97
2018-01-13T01:28:15.687Z,47.53
2018-01-13T01:30:44.685Z,53.77
2018-01-13T01:33:13.630Z,53.80
2018-01-13T01:35:42.603Z,50.30
2018-01-13T01:38:11.586Z,50.67
2018-01-13T01:40:40.595Z,47.80
2018-01-13T01:43:09.539Z,47.40
2018-01-13T01:45:38.519Z,37.30
2018-01-13T01:48:07.464Z,45.07
2018-01-13T01:50:36.420Z,42.97
2018-01-13T01:53:05.399Z,42.60
2018-01-13T01:55:34.771Z,43.40
2018-01-13T01:58:04.517Z,48.63
2018-01-13T02:00:33.483Z,54.07
2018-01-13T02:03:02.419Z,43.87
2018-01-13T02:05:31.408Z,52.90
2018-01-13T02:08:00.389Z,59.90
2018-01-13T02:10:29.343Z,38.70
2018-01-13T02:12:59.142Z,50.33
2018-01-13T02:15:29.609Z,46.80
2018-01-13T02:17:58.585Z,51.50
2018-01-13T02:20:28.288Z,50.63
2018-01-13T02:22:58.037Z,57.90
2018-01-13T02:25:27.003Z,51.67
2018-01-13T02:27:56.357Z,52.40
2018-01-13T02:30:25.733Z,55.57
2018-01-13T02:32:54.686Z,51.70
2018-01-13T02:35:23.628Z,48.93
2018-01-13T02:37:52.615Z,40.90
2018-01-13T02:40:21.667Z,55.93
2018-01-13T02:42:50.694Z,51.50
2018-01-13T02:45:20.413Z,54.90
2018-01-13T02:47:49.563Z,52.97
2018-01-13T02:50:18.557Z,50.40
2018-01-13T02:52:47.491Z,49.07
2018-01-13T02:55:17.222Z,64.80
2018-01-13T02:57:46.588Z,68.93
2018-01-13T03:00:16.304Z,58.30
2018-01-13T03:02:45.266Z,69.17
2018-01-13T03:05:15.005Z,88.80
2018-01-13T03:07:43.961Z,51.07
2018-01-13T03:10:13.685Z,58.53
2018-01-13T03:12:43.473Z,93.10
2018-01-13T03:15:12.474Z,75.20
2018-01-13T03:17:41.793Z,56.63
2018-01-13T03:20:10.779Z,59.47
2018-01-13T03:22:40.496Z,48.67
2018-01-13T03:25:09.845Z,54.33
2018-01-13T03:27:39.595Z,50.63
2018-01-13T03:30:09.344Z,44.57
2018-01-13T03:32:38.711Z,52.07
2018-01-13T03:35:08.414Z,41.83
2018-01-13T03:37:37.502Z,50.00
2018-01-13T03:40:06.426Z,47.27
2018-01-13T03:42:36.568Z,45.67
2018-01-13T03:45:05.719Z,56.13
2018-01-13T03:47:35.109Z,48.90
2018-01-13T03:50:04.209Z,52.90
2018-01-13T03:52:33.582Z,40.53
2018-01-13T03:55:02.532Z,56.80
2018-01-13T03:57:31.563Z,54.30
2018-01-13T04:00:00.585Z,50.17
2018-01-13T04:02:30.308Z,42.80
2018-01-13T04:04:59.284Z,45.57
2018-01-13T04:07:29.003Z,51.70
2018-01-13T04:09:58.808Z,46.07
2018-01-13T04:12:28.550Z,46.30
2018-01-13T04:14:57.509Z,44.47
2018-01-13T04:17:26.865Z,46.33
2018-01-13T04:19:55.820Z,41.40
2018-01-13T04:22:24.787Z,45.83
2018-01-13T04:24:54.494Z,49.07
2018-01-13T04:27:24.249Z,43.23
2018-01-13T04:29:53.581Z,45.17
2018-01-13T04:32:22.950Z,44.97
2018-01-13T04:34:51.903Z,38.23
2018-01-13T04:37:21.786Z,39.80
2018-01-13T04:39:50.741Z,36.53
2018-01-13T04:42:20.532Z,46.77
2018-01-13T04:44:49.489Z,43.67
2018-01-13T04:47:18.467Z,39.47
2018-01-13T04:49:47.410Z,43.17
2018-01-13T04:52:16.776Z,42.93
2018-01-13T04:54:45.728Z,44.30
2018-01-13T04:57:15.507Z,47.90
2018-01-13T04:59:45.235Z,42.83
2018-01-13T05:02:14.249Z,40.83
2018-01-13T05:04:43.910Z,46.50
2018-01-13T05:07:12.903Z,43.43
2018-01-13T05:09:42.645Z,43.20
2018-01-13T05:12:11.604Z,43.23
2018-01-13T05:14:41.311Z,51.10
2018-01-13T05:17:11.021Z,40.57
2018-01-13T05:19:39.986Z,49.10
2018-01-13T05:22:09.008Z,51.50
2018-01-13T05:24:37.955Z,43.00
2018-01-13T05:27:06.904Z,43.07
2018-01-13T05:29:36.262Z,49.07
2018-01-13T05:32:05.245Z,46.73
2018-01-13T05:34:34.192Z,39.60
2018-01-13T05:37:03.154Z,43.67
2018-01-13T05:39:32.124Z,45.50
2018-01-13T05:42:01.500Z,42.17
2018-01-13T05:44:30.468Z,44.07
2018-01-13T05:46:59.428Z,42.13
2018-01-13T05:49:28.354Z,42.73
2018-01-13T05:51:57.350Z,48.67
2018-01-13T05:54:26.320Z,43.33
2018-01-13T05:56:55.688Z,42.73
2018-01-13T05:59:24.681Z,51.60
2018-01-13T06:01:53.626Z,42.20
2018-01-13T06:04:22.564Z,39.03
2018-01-13T06:06:51.537Z,37.37
2018-01-13T06:09:20.994Z,46.10
2018-01-13T06:11:50.725Z,39.70
2018-01-13T06:14:19.690Z,42.50
2018-01-13T06:16:48.683Z,42.97
2018-01-13T06:19:17.632Z,51.23
2018-01-13T06:21:46.589Z,39.87
2018-01-13T06:24:15.620Z,44.80
2018-01-13T06:26:44.585Z,40.70
2018-01-13T06:29:13.519Z,41.03
2018-01-13T06:31:42.882Z,46.40
2018-01-13T06:34:11.837Z,48.97
2018-01-13T06:36:41.581Z,41.67
2018-01-13T06:39:10.526Z,45.03
2018-01-13T06:41:39.495Z,41.50
2018-01-13T06:44:08.529Z,44.93
2018-01-13T06:46:38.335Z,41.87
2018-01-13T06:49:07.261Z,47.20
2018-01-13T06:51:36.627Z,41.33
2018-01-13T06:54:06.424Z,38.97
2018-01-13T06:56:35.495Z,45.73
2018-01-13T06:59:04.447Z,36.93
2018-01-13T07:01:34.190Z,38.80
2018-01-13T07:04:03.171Z,42.60
2018-01-13T07:06:32.549Z,32.50
2018-01-13T07:09:01.559Z,32.70
2018-01-13T07:11:30.718Z,39.63
2018-01-13T07:13:59.710Z,35.80
2018-01-13T07:16:28.666Z,38.37
2018-01-13T07:18:57.675Z,28.03
2018-01-13T07:21:26.665Z,37.43
2018-01-13T07:23:55.598Z,32.50
2018-01-13T07:26:24.979Z,41.70
2018-01-13T07:28:54.727Z,36.23
2018-01-13T07:31:23.763Z,35.53
2018-01-13T07:33:54.289Z,33.57
2018-01-13T07:36:23.219Z,36.73
2018-01-13T07:38:53.211Z,36.20
2018-01-13T07:41:24.462Z,37.23
2018-01-13T07:43:53.454Z,34.13
2018-01-13T07:46:22.372Z,38.93
2018-01-13T07:48:51.357Z,39.17
2018-01-13T07:51:20.361Z,36.27
2018-01-13T07:53:49.725Z,39.63
2018-01-13T07:56:19.457Z,39.67
2018-01-13T07:58:48.843Z,44.03
2018-01-13T08:01:17.792Z,36.63
2018-01-13T08:03:47.153Z,40.40
2018-01-13T08:06:16.161Z,37.33
2018-01-13T08:08:45.497Z,35.80
2018-01-13T08:11:14.475Z,33.07
2018-01-13T08:13:43.421Z,34.27
2018-01-13T08:16:13.229Z,46.63
2018-01-13T08:18:42.959Z,35.20
2018-01-13T08:21:12.682Z,37.23
2018-01-13T08:23:41.647Z,33.90
2018-01-13T08:26:10.632Z,36.70
2018-01-13T08:28:40.345Z,31.73
2018-01-13T08:31:09.711Z,30.20
2018-01-13T08:33:38.729Z,33.17
2018-01-13T08:36:08.482Z,30.53
2018-01-13T08:38:37.435Z,36.97
2018-01-13T08:41:06.790Z,34.93
2018-01-13T08:43:35.732Z,34.80
2018-01-13T08:46:05.493Z,32.20
2018-01-13T08:48:34.473Z,37.00
2018-01-13T08:51:04.579Z,41.57
2018-01-13T08:53:33.603Z,34.43
2018-01-13T08:56:03.319Z,38.67
2018-01-13T08:58:32.341Z,38.43
2018-01-13T09:01:02.775Z,42.60
2018-01-13T09:03:32.520Z,40.97
2018-01-13T09:06:01.547Z,37.33
2018-01-13T09:08:30.494Z,36.23
2018-01-13T09:10:59.838Z,37.27
2018-01-13T09:13:29.572Z,40.97
2018-01-13T09:15:59.277Z,39.50
2018-01-13T09:18:29.000Z,31.50
2018-01-13T09:20:58.747Z,41.27
2018-01-13T09:23:27.692Z,30.67
2018-01-13T09:25:57.567Z,34.37
2018-01-13T09:28:26.562Z,40.63
2018-01-13T09:30:55.982Z,47.10
2018-01-13T09:33:24.958Z,42.53
2018-01-13T09:35:53.952Z,37.07
2018-01-13T09:38:22.940Z,37.13
2018-01-13T09:40:52.705Z,33.80
2018-01-13T09:43:21.693Z,38.50
2018-01-13T09:45:51.441Z,39.97
2018-01-13T09:48:20.832Z,42.30
2018-01-13T09:50:49.784Z,45.53
2018-01-13T09:53:19.526Z,38.40
2018-01-13T09:55:48.476Z,38.07
2018-01-13T09:58:17.447Z,39.50
2018-01-13T10:00:46.436Z,37.93
2018-01-13T10:03:15.384Z,43.07
2018-01-13T10:05:44.360Z,58.87
2018-01-13T10:08:14.099Z,40.53
2018-01-13T10:10:43.471Z,43.00
2018-01-13T10:13:13.239Z,44.07
2018-01-13T10:15:42.186Z,36.50
2018-01-13T10:18:11.181Z,34.70
2018-01-13T10:20:40.256Z,46.70
2018-01-13T10:23:09.605Z,40.93
2018-01-13T10:25:38.563Z,41.13
2018-01-13T10:28:07.539Z,41.80
2018-01-13T10:30:37.325Z,50.60
2018-01-13T10:33:06.734Z,38.17
2018-01-13T10:35:36.535Z,44.40
2018-01-13T10:38:05.544Z,39.27
2018-01-13T10:40:34.556Z,40.70
2018-01-13T10:43:04.296Z,44.27
2018-01-13T10:45:33.282Z,49.97
2018-01-13T10:48:02.286Z,37.13
2018-01-13T10:50:32.011Z,45.93
2018-01-13T10:53:02.649Z,41.47
2018-01-13T10:55:32.045Z,43.13
2018-01-13T10:58:01.799Z,44.83
2018-01-13T11:00:31.492Z,48.67
2018-01-13T11:03:00.446Z,47.03
2018-01-13T11:05:30.301Z,44.30
2018-01-13T11:07:59.656Z,42.23
2018-01-13T11:10:28.645Z,46.47
2018-01-13T11:12:58.550Z,41.20
2018-01-13T11:15:28.217Z,42.83
2018-01-13T11:17:57.819Z,47.10
2018-01-13T11:20:26.779Z,52.90
2018-01-13T11:22:56.583Z,48.97
2018-01-13T11:25:26.344Z,48.23
2018-01-13T11:27:56.164Z,53.50
2018-01-13T11:30:25.568Z,51.97
2018-01-13T11:32:55.473Z,42.00
2018-01-13T11:35:25.090Z,43.57
2018-01-13T11:37:54.423Z,46.13
2018-01-13T11:40:23.460Z,49.37
2018-01-13T11:42:53.264Z,54.00
2018-01-13T11:45:22.238Z,42.13
2018-01-13T11:47:52.664Z,46.60
2018-01-13T11:50:21.750Z,50.57
2018-01-13T11:52:50.716Z,46.70
2018-01-13T11:55:19.773Z,41.20
2018-01-13T11:57:50.671Z,51.60
2018-01-13T12:00:19.805Z,49.20
2018-01-13T12:02:49.600Z,37.80
2018-01-13T12:05:19.033Z,46.93
2018-01-13T12:07:48.474Z,49.20
2018-01-13T12:10:18.857Z,44.90
2018-01-13T12:12:47.866Z,48.20
2018-01-13T12:15:17.644Z,50.13
2018-01-13T12:17:46.706Z,43.00
2018-01-13T12:20:15.782Z,43.23
2018-01-13T12:22:44.819Z,48.03
2018-01-13T12:25:14.864Z,43.83
2018-01-13T12:27:43.977Z,42.87
2018-01-13T12:30:13.717Z,44.37
2018-01-13T12:32:43.769Z,49.33
2018-01-13T12:35:13.179Z,50.30
2018-01-13T12:37:42.900Z,46.00
2018-01-13T12:40:12.608Z,41.30
2018-01-13T12:42:42.357Z,46.57
2018-01-13T12:45:11.377Z,49.20
2018-01-13T12:47:40.757Z,48.53
2018-01-13T12:50:09.698Z,40.60
2018-01-13T12:52:39.435Z,48.10
2018-01-13T12:55:08.870Z,46.60
2018-01-13T12:57:38.261Z,43.40
2018-01-13T13:00:07.205Z,41.87
2018-01-13T13:02:36.941Z,45.10
2018-01-13T13:05:05.887Z,52.67
2018-01-13T13:07:35.299Z,45.97
2018-01-13T13:10:04.224Z,42.90
2018-01-13T13:12:33.601Z,45.83
2018-01-13T13:15:02.974Z,46.70
2018-01-13T13:17:31.948Z,46.43
2018-01-13T13:20:00.912Z,47.13
2018-01-13T13:22:30.311Z,47.10
2018-01-13T13:24:59.672Z,46.90
2018-01-13T13:27:29.416Z,45.63
2018-01-13T13:29:59.156Z,45.33
2018-01-13T13:32:29.026Z,45.70
2018-01-13T13:35:03.507Z,49.33
2018-01-13T13:37:32.471Z,52.23
2018-01-13T13:40:01.468Z,53.77
2018-01-13T13:42:30.396Z,46.67
2018-01-13T13:44:59.835Z,42.03
2018-01-13T13:47:29.575Z,46.50
2018-01-13T13:49:58.570Z,39.30
2018-01-13T13:52:27.886Z,34.00
2018-01-13T13:54:57.639Z,37.43
2018-01-13T13:57:26.685Z,40.80
2018-01-13T13:59:55.725Z,34.33
2018-01-13T14:02:24.679Z,37.37
2018-01-13T14:04:53.736Z,39.37
2018-01-13T14:07:22.722Z,33.17
2018-01-13T14:09:51.696Z,33.63
2018-01-13T14:12:21.449Z,33.53
2018-01-13T14:14:50.436Z,29.67
2018-01-13T14:17:19.399Z,34.97
2018-01-13T14:19:49.156Z,39.63
2018-01-13T14:22:18.579Z,38.53
2018-01-13T14:24:47.869Z,38.33
2018-01-13T14:27:16.860Z,39.37
2018-01-13T14:29:45.845Z,49.30
2018-01-13T14:32:14.841Z,42.27
2018-01-13T14:34:43.871Z,37.53
2018-01-13T14:37:13.626Z,40.20
2018-01-13T14:39:43.385Z,42.83
2018-01-13T14:42:13.127Z,44.37
2018-01-13T14:44:42.092Z,33.60
2018-01-13T14:47:11.460Z,41.60
2018-01-13T14:49:41.185Z,32.00
2018-01-13T14:52:10.157Z,29.50
2018-01-13T14:54:39.907Z,35.43
2018-01-13T14:57:09.639Z,33.67
2018-01-13T14:59:38.626Z,34.83
2018-01-13T15:02:07.626Z,35.07
2018-01-13T15:04:37.412Z,35.33
2018-01-13T15:07:07.165Z,39.70
2018-01-13T15:09:36.609Z,38.77
2018-01-13T15:12:05.582Z,34.30
2018-01-13T15:14:35.328Z,41.60
2018-01-13T15:17:05.070Z,38.37
2018-01-13T15:19:34.829Z,49.03
2018-01-13T15:22:04.558Z,43.77
2018-01-13T15:24:34.310Z,44.73
2018-01-13T15:27:03.253Z,42.87
2018-01-13T15:29:33.053Z,46.13
2018-01-13T15:32:02.436Z,44.10
2018-01-13T15:34:32.183Z,63.77
2018-01-13T15:37:01.532Z,43.63
2018-01-13T15:39:30.705Z,49.13
2018-01-13T15:42:00.433Z,44.83
2018-01-13T15:44:29.397Z,52.90
2018-01-13T15:46:59.182Z,56.73
2018-01-13T15:49:29.688Z,48.27
2018-01-13T15:51:58.632Z,46.03
2018-01-13T15:54:28.380Z,49.23
2018-01-13T15:56:57.446Z,52.70
2018-01-13T15:59:26.448Z,44.20
2018-01-13T16:01:55.399Z,54.90
2018-01-13T16:04:24.760Z,40.53
2018-01-13T16:06:54.469Z,42.60
2018-01-13T16:09:23.464Z,46.97
2018-01-13T16:11:52.881Z,43.47
2018-01-13T16:14:22.655Z,49.00
2018-01-13T16:16:51.776Z,34.60
2018-01-13T16:19:21.491Z,37.20
2018-01-13T16:21:50.498Z,47.53
2018-01-13T16:24:19.876Z,51.57
2018-01-13T16:26:49.621Z,49.70
2018-01-13T16:29:19.040Z,50.27
2018-01-13T16:31:48.797Z,47.27
2018-01-13T16:34:17.745Z,48.27
2018-01-13T16:36:46.691Z,51.70
2018-01-13T16:39:15.734Z,49.17
2018-01-13T16:41:45.494Z,47.83
2018-01-13T16:44:15.229Z,60.57
2018-01-13T16:46:44.225Z,50.93
2018-01-13T16:49:13.638Z,57.90
2018-01-13T16:51:43.366Z,50.07
2018-01-13T16:54:12.741Z,43.73
2018-01-13T16:56:42.504Z,63.97
2018-01-13T16:59:12.243Z,51.87
2018-01-13T17:01:42.074Z,57.47
2018-01-13T17:04:11.820Z,54.57
2018-01-13T17:06:40.772Z,51.30
2018-01-13T17:09:10.495Z,46.30
2018-01-13T17:11:39.482Z,49.03
2018-01-13T17:14:08.869Z,48.60
2018-01-13T17:16:37.839Z,53.53
2018-01-13T17:19:06.806Z,48.10
2018-01-13T17:21:36.514Z,46.10
2018-01-13T17:24:05.526Z,50.00
2018-01-13T17:26:34.474Z,53.43
2018-01-13T17:29:03.404Z,50.07
2018-01-13T17:31:32.781Z,43.50
2018-01-13T17:34:01.747Z,49.77
2018-01-13T17:36:31.468Z,47.70
2018-01-13T17:39:00.486Z,50.40
2018-01-13T17:41:29.535Z,49.70
2018-01-13T17:43:59.337Z,47.17
2018-01-13T17:46:28.716Z,53.43
2018-01-13T17:48:57.764Z,55.10
2018-01-13T17:51:26.703Z,50.20
2018-01-13T17:53:55.699Z,50.27
2018-01-13T17:56:25.432Z,56.43
2018-01-13T17:58:55.172Z,44.27
2018-01-13T18:01:24.259Z,45.53
2018-01-13T18:03:53.219Z,50.37
2018-01-13T18:06:22.205Z,42.20
2018-01-13T18:08:51.137Z,47.60
2018-01-13T18:11:20.527Z,42.10
2018-01-13T18:13:50.270Z,54.77
2018-01-13T18:16:19.238Z,46.27
2018-01-13T18:18:48.598Z,52.60
2018-01-13T18:21:17.591Z,52.10
2018-01-13T18:23:46.674Z,65.67
2018-01-13T18:26:15.662Z,69.27
2018-01-13T18:28:45.410Z,65.57
2018-01-13T18:31:14.398Z,64.27
2018-01-13T18:33:43.333Z,56.33
2018-01-13T18:36:12.302Z,55.50
2018-01-13T18:38:41.307Z,59.20
2018-01-13T18:41:10.684Z,56.00
2018-01-13T18:43:40.440Z,51.40
2018-01-13T18:46:09.394Z,59.80
2018-01-13T18:48:38.757Z,58.23
2018-01-13T18:51:07.742Z,55.27
2018-01-13T18:53:36.729Z,60.37
2018-01-13T18:56:06.521Z,51.37
2018-01-13T18:58:35.892Z,63.87
2018-01-13T19:01:04.898Z,58.97
2018-01-13T19:03:33.967Z,56.43
2018-01-13T19:06:04.424Z,53.57
2018-01-13T19:08:33.827Z,51.37
2018-01-13T19:11:03.592Z,62.60
2018-01-13T19:13:32.616Z,59.07
2018-01-13T19:16:03.257Z,63.23
2018-01-13T19:18:32.674Z,65.13
2018-01-13T19:21:01.689Z,62.03
2018-01-13T19:23:30.690Z,54.87
2018-01-13T19:25:59.678Z,58.13
2018-01-13T19:28:29.920Z,55.77
2018-01-13T19:30:58.904Z,60.63
2018-01-13T19:33:27.899Z,45.83
2018-01-13T19:35:56.911Z,49.90
2018-01-13T19:38:27.373Z,43.60
2018-01-13T19:40:57.922Z,40.90
2018-01-13T19:43:27.660Z,43.13
2018-01-13T19:45:57.064Z,42.63
2018-01-13T19:48:26.501Z,34.87
2018-01-13T19:50:55.538Z,36.47
2018-01-13T19:53:24.557Z,33.90
2018-01-13T19:55:53.542Z,33.43
2018-01-13T19:58:23.279Z,35.07
2018-01-13T20:00:52.722Z,30.17
2018-01-13T20:03:21.882Z,32.17
2018-01-13T20:05:51.680Z,27.50
2018-01-13T20:08:20.676Z,26.20
2018-01-13T20:10:50.488Z,29.33
2018-01-13T20:13:19.508Z,27.87
2018-01-13T20:15:48.531Z,26.50
2018-01-13T20:18:18.441Z,26.00
2018-01-13T20:20:47.468Z,31.40
2018-01-13T20:23:16.450Z,34.13
2018-01-13T20:25:46.218Z,27.50
2018-01-13T20:28:18.450Z,28.30
2018-01-13T20:30:47.852Z,30.23
2018-01-13T20:33:17.929Z,27.67
2018-01-13T20:35:46.947Z,27.33
2018-01-13T20:38:17.448Z,27.20
2018-01-13T20:40:46.467Z,27.23
2018-01-13T20:43:15.514Z,25.10
2018-01-13T20:45:46.094Z,28.53
2018-01-13T20:48:15.518Z,24.00
2018-01-13T20:50:44.888Z,22.13
2018-01-13T20:53:14.738Z,31.00
2018-01-13T20:55:43.726Z,24.80
2018-01-13T20:58:13.466Z,23.60
2018-01-13T21:00:42.965Z,25.80
2018-01-13T21:03:11.968Z,27.20
2018-01-13T21:05:40.981Z,24.97
2018-01-13T21:08:10.763Z,22.63
2018-01-13T21:10:39.795Z,25.57
2018-01-13T21:13:09.529Z,22.23
2018-01-13T21:15:39.303Z,22.00
2018-01-13T21:18:08.329Z,23.90
2018-01-13T21:20:37.429Z,23.97
2018-01-13T21:23:06.431Z,24.27
2018-01-13T21:25:35.891Z,22.23
2018-01-13T21:28:05.650Z,23.53
2018-01-13T21:30:35.401Z,20.10
2018-01-13T21:33:04.645Z,21.00
2018-01-13T21:35:34.478Z,25.67
2018-01-13T21:38:03.488Z,22.40
2018-01-13T21:40:32.479Z,20.23
2018-01-13T21:43:02.819Z,23.83
2018-01-13T21:45:32.191Z,22.60
2018-01-13T21:48:01.649Z,23.00
2018-01-13T21:50:31.381Z,23.13
2018-01-13T21:53:00.792Z,20.67
2018-01-13T21:55:30.517Z,19.40
2018-01-13T21:57:59.558Z,19.63
2018-01-13T22:00:29.303Z,21.37
2018-01-13T22:02:59.119Z,19.37
2018-01-13T22:05:29.654Z,19.10
2018-01-13T22:08:00.720Z,22.70
2018-01-13T22:10:30.470Z,24.23
2018-01-13T22:12:59.904Z,22.20
2018-01-13T22:15:29.709Z,24.93
2018-01-13T22:17:59.642Z,23.57
2018-01-13T22:20:29.362Z,21.43
2018-01-13T22:22:58.339Z,17.33
2018-01-13T22:25:27.349Z,19.20
2018-01-13T22:27:56.734Z,21.93
2018-01-13T22:30:26.465Z,19.80
2018-01-13T22:32:55.468Z,20.70
2018-01-13T22:35:24.466Z,18.30
2018-01-13T22:37:53.850Z,21.03
2018-01-13T22:40:22.823Z,19.73
2018-01-13T22:42:52.440Z,22.70
2018-01-13T22:45:21.414Z,21.60
2018-01-13T22:47:51.115Z,19.50
2018-01-13T22:50:20.860Z,18.57
2018-01-13T22:52:49.852Z,21.83
2018-01-13T22:55:18.844Z,16.50
2018-01-13T22:57:48.693Z,18.27
2018-01-13T23:00:18.433Z,19.87
2018-01-13T23:02:48.146Z,22.47
2018-01-13T23:05:17.896Z,18.67
2018-01-13T23:07:47.665Z,18.97
2018-01-13T23:10:17.423Z,16.53
2018-01-13T23:12:46.369Z,20.30
2018-01-13T23:15:15.724Z,22.47
2018-01-13T23:17:45.501Z,24.60
2018-01-13T23:20:14.835Z,22.93
2018-01-13T23:22:43.866Z,20.17
2018-01-13T23:25:13.594Z,21.80
2018-01-13T23:27:42.562Z,19.13
2018-01-13T23:30:12.298Z,24.97
2018-01-13T23:32:41.662Z,15.87
2018-01-13T23:35:11.426Z,20.37
2018-01-13T23:37:40.795Z,17.03
2018-01-13T23:40:10.537Z,20.37
2018-01-13T23:42:39.601Z,15.50
2018-01-13T23:45:08.529Z,19.30
2018-01-13T23:47:37.503Z,16.80
2018-01-13T23:50:06.439Z,17.87
2018-01-13T23:52:35.408Z,18.03
2018-01-13T23:55:04.459Z,17.77
